EGYM

RAF Marham Airport

Marham, United Kingdom
METAR EGYM 241050Z 04010KT CAVOK 20/12 Q1021 BLU NOSIG
Observed Flight Rules
May-24 @ 10:50 UTC (an hour ago) Visual Flight Rules
Wind Visibility Clouds
40° at 10 knots 10,000+ meters
  • Clear skies
Temperatures Readings
Current 20°C / 68°F
Dewpoint 12°C / 54°F
Humidity 60%
Altimeter 30.15" Hg
Pressure 1021 hPa
Elevation 23
METAR EGYM 241050Z 04010KT CAVOK 20/12 Q1021 BLU NOSIG
Observed Flight Rules
May-24 @ 10:50 UTC
(an hour ago)
VFR
Wind Visibility
40° at 10 knots 10,000+ meters
Clouds
  • Clear skies
Temperature Dewpoint
20°C / 68°F 12°C / 54°F
Humidity Altimeter Pressure
60% 30.15" Hg 1021 hPa